Time;durP1;ratioP1;P1;durP2;ratioP2;P2;SDS_P1;SDS_P2;PMS_P1;PMS_P2;Temp;Humidity;BMP_temperature;BMP_pressure;BME280_temperature;BME280_humidity;BME280_pressure;Samples;Min_cycle;Max_cycle;Signal;HPM_P1;HPM_P2
2021/12/02 00:01:37;;;;;;;5.47;2.30;;;11.90;99.90;;;;;;5003338;28;20243;-66
2021/12/02 00:04:04;;;;;;;10.40;2.70;;;11.80;99.90;;;;;;5003938;28;20583;-66
2021/12/02 00:06:32;;;;;;;12.23;3.33;;;11.80;99.90;;;;;;5006197;28;20199;-66
2021/12/02 00:08:58;;;;;;;6.90;2.57;;;11.70;99.90;;;;;;5001830;28;20645;-66
2021/12/02 00:11:24;;;;;;;4.87;2.27;;;11.70;99.90;;;;;;5004778;28;20995;-66
2021/12/02 00:22:00;;;;;;;7.17;2.83;;;11.60;99.90;;;;;;5003576;28;20193;-66
2021/12/02 00:24:35;;;;;;;10.03;2.73;;;11.50;99.90;;;;;;5006783;28;20269;-66
2021/12/02 00:27:07;;;;;;;8.60;2.80;;;11.50;99.90;;;;;;5003885;28;20212;-66
2021/12/02 00:29:35;;;;;;;10.50;2.87;;;11.50;99.90;;;;;;5005548;28;20220;-66
2021/12/02 00:32:09;;;;;;;10.53;2.70;;;11.50;99.90;;;;;;5000876;28;21018;-66
2021/12/02 00:34:44;;;;;;;10.03;2.40;;;11.40;99.90;;;;;;5003992;28;20201;-65
2021/12/02 00:37:12;;;;;;;9.23;3.00;;;11.40;99.90;;;;;;5002709;28;20292;-65
2021/12/02 00:39:39;;;;;;;9.93;2.60;;;11.40;99.90;;;;;;5005264;28;20205;-65
2021/12/02 00:42:08;;;;;;;8.27;2.77;;;11.30;99.90;;;;;;5004023;28;20612;-65
2021/12/02 00:44:37;;;;;;;8.83;3.00;;;11.30;99.90;;;;;;5002795;28;20190;-65
2021/12/02 00:47:04;;;;;;;7.53;2.60;;;11.30;99.90;;;;;;5006632;28;20945;-65
2021/12/02 00:49:31;;;;;;;7.20;2.63;;;11.30;99.90;;;;;;4988097;28;20193;-65
2021/12/02 00:52:00;;;;;;;7.13;2.97;;;11.30;99.90;;;;;;5005740;28;20232;-64
2021/12/02 00:54:30;;;;;;;7.20;2.37;;;11.30;99.90;;;;;;5003187;28;20236;-64
2021/12/02 00:56:57;;;;;;;9.73;2.50;;;11.30;99.90;;;;;;5004018;28;20330;-64
2021/12/02 00:59:28;;;;;;;8.00;2.90;;;11.30;99.90;;;;;;5000348;28;20543;-64
2021/12/02 01:01:55;;;;;;;10.87;2.70;;;11.30;99.90;;;;;;5000069;28;20255;-64
2021/12/02 01:04:24;;;;;;;5.17;2.50;;;11.30;99.90;;;;;;4998480;28;20231;-64
2021/12/02 01:06:51;;;;;;;12.80;4.27;;;11.20;99.90;;;;;;4997089;28;20678;-64
2021/12/02 01:09:18;;;;;;;12.90;2.70;;;11.20;99.90;;;;;;5009732;28;20193;-64
2021/12/02 01:11:45;;;;;;;27.80;3.90;;;11.20;99.90;;;;;;5005499;28;20196;-64
2021/12/02 01:14:12;;;;;;;14.17;3.30;;;11.10;99.90;;;;;;5002167;28;21304;-64
2021/12/02 01:16:39;;;;;;;9.50;2.43;;;11.20;99.90;;;;;;5007197;28;20199;-66
2021/12/02 01:19:07;;;;;;;10.70;2.53;;;11.10;99.90;;;;;;5005508;28;20192;-65
2021/12/02 01:21:38;;;;;;;10.73;3.07;;;10.90;99.90;;;;;;4979626;28;20243;-63
2021/12/02 01:24:11;;;;;;;9.93;2.30;;;10.90;99.90;;;;;;4996131;28;20193;-63
2021/12/02 01:26:38;;;;;;;3.67;2.20;;;10.90;99.90;;;;;;4998531;28;20224;-63
2021/12/02 01:29:05;;;;;;;7.03;2.43;;;10.80;99.90;;;;;;4995678;28;20915;-63
2021/12/02 01:31:35;;;;;;;11.07;2.70;;;10.80;99.90;;;;;;4996387;28;20205;-63
2021/12/02 01:34:08;;;;;;;12.00;2.67;;;10.70;99.90;;;;;;5012082;28;20717;-63
2021/12/02 01:36:41;;;;;;;7.37;2.90;;;10.70;99.90;;;;;;4994741;28;20198;-63
2021/12/02 01:39:09;;;;;;;11.20;2.17;;;10.70;99.90;;;;;;4994478;28;20189;-63
2021/12/02 01:41:44;;;;;;;13.87;2.70;;;10.70;99.90;;;;;;5000094;28;20193;-63
2021/12/02 01:44:14;;;;;;;11.37;2.93;;;10.70;99.90;;;;;;4998929;28;20212;-63
2021/12/02 01:46:42;;;;;;;4.43;2.13;;;10.70;99.90;;;;;;5003475;28;20275;-63
2021/12/02 01:49:11;;;;;;;11.80;2.67;;;10.70;99.90;;;;;;5015450;28;20205;-62
2021/12/02 01:51:47;;;;;;;8.87;2.60;;;10.60;99.90;;;;;;4995991;28;20939;-63
2021/12/02 01:54:18;;;;;;;8.63;2.40;;;10.60;99.90;;;;;;4986078;28;20709;-63
2021/12/02 01:56:54;;;;;;;9.40;2.77;;;10.50;99.90;;;;;;5004592;28;20180;-63
2021/12/02 01:59:33;;;;;;;9.17;2.53;;;10.50;99.90;;;;;;5032385;28;20188;-63
2021/12/02 02:02:03;;;;;;;10.77;2.40;;;10.50;99.90;;;;;;4985011;28;20193;-63
2021/12/02 02:04:29;;;;;;;5.43;2.20;;;10.40;99.90;;;;;;4996750;28;20669;-64
2021/12/02 02:07:00;;;;;;;10.57;2.23;;;10.40;99.90;;;;;;5000010;28;20193;-63
2021/12/02 02:09:33;;;;;;;8.57;2.20;;;10.40;99.90;;;;;;4996598;28;20317;-63
2021/12/02 02:12:07;;;;;;;4.63;2.00;;;10.40;99.90;;;;;;5000533;28;20327;-63
2021/12/02 02:14:34;;;;;;;8.13;2.30;;;10.40;99.90;;;;;;5004422;28;20205;-63
2021/12/02 02:17:08;;;;;;;12.87;2.47;;;10.50;99.90;;;;;;5033475;28;20545;-64
2021/12/02 02:19:34;;;;;;;7.77;2.20;;;10.50;99.90;;;;;;5005676;28;20238;-64
2021/12/02 02:22:00;;;;;;;6.13;2.30;;;10.50;99.90;;;;;;5002595;28;20203;-63
2021/12/02 02:24:28;;;;;;;7.33;2.30;;;10.60;99.90;;;;;;5005307;28;20231;-63
2021/12/02 02:26:54;;;;;;;8.03;2.23;;;10.60;99.90;;;;;;5019216;28;20228;-63
2021/12/02 02:29:20;;;;;;;8.33;2.73;;;10.70;99.90;;;;;;5034664;28;20767;-64
2021/12/02 02:31:48;;;;;;;7.63;2.53;;;10.70;99.90;;;;;;4997671;28;20636;-64
2021/12/02 02:34:14;;;;;;;9.07;2.70;;;10.70;99.90;;;;;;4998739;28;20212;-64
2021/12/02 02:36:57;;;;;;;6.70;2.13;;;10.70;99.90;;;;;;5002985;28;20994;-64
2021/12/02 02:39:25;;;;;;;9.53;2.43;;;10.70;99.90;;;;;;5035963;28;20271;-64
2021/12/02 02:41:58;;;;;;;6.20;2.30;;;10.70;99.90;;;;;;5001420;28;20201;-64
2021/12/02 02:44:26;;;;;;;7.03;3.30;;;10.70;99.90;;;;;;5000829;28;20223;-64
2021/12/02 02:46:53;;;;;;;7.90;2.77;;;10.60;99.90;;;;;;5004761;28;20215;-64
2021/12/02 02:49:20;;;;;;;7.47;2.20;;;10.60;99.90;;;;;;5004633;28;20197;-62
2021/12/02 02:51:47;;;;;;;5.63;1.93;;;10.50;99.90;;;;;;5011789;28;20194;-62
2021/12/02 02:54:16;;;;;;;6.40;2.17;;;10.60;99.90;;;;;;4999588;28;20224;-62
2021/12/02 02:57:01;;;;;;;5.47;2.10;;;10.60;99.90;;;;;;5012210;28;20189;-62
2021/12/02 02:59:40;;;;;;;4.77;1.97;;;10.60;99.90;;;;;;5003153;28;20267;-62
2021/12/02 03:02:23;;;;;;;4.03;1.90;;;10.50;99.90;;;;;;5000171;28;20196;-62
2021/12/02 03:05:08;;;;;;;5.53;2.00;;;10.50;99.90;;;;;;5001055;28;20228;-62
2021/12/02 03:07:42;;;;;;;6.80;2.17;;;10.50;99.90;;;;;;5000941;28;20292;-62
2021/12/02 03:10:16;;;;;;;8.13;2.10;;;10.40;99.90;;;;;;4996851;28;20849;-62
2021/12/02 03:13:10;;;;;;;8.97;1.93;;;10.40;99.90;;;;;;4998395;28;20243;-62
2021/12/02 03:18:22;;;;;;;10.77;2.10;;;10.30;99.90;;;;;;5036101;28;21056;-63
2021/12/02 03:20:49;;;;;;;4.30;1.80;;;10.30;99.90;;;;;;4996763;28;20189;-63
2021/12/02 03:23:15;;;;;;;6.27;1.90;;;10.30;99.90;;;;;;5006402;28;20213;-64
2021/12/02 03:25:41;;;;;;;6.43;2.20;;;10.30;99.90;;;;;;5008708;28;20204;-64
2021/12/02 03:28:07;;;;;;;11.07;2.30;;;10.30;99.90;;;;;;5018388;28;20346;-63
2021/12/02 03:30:34;;;;;;;7.97;1.77;;;10.20;99.90;;;;;;5004838;28;20267;-63
2021/12/02 03:33:00;;;;;;;7.53;1.97;;;10.20;99.90;;;;;;5005347;28;20239;-63
2021/12/02 03:35:26;;;;;;;6.40;2.07;;;10.20;99.90;;;;;;5007421;28;20196;-64
2021/12/02 03:37:53;;;;;;;5.03;2.00;;;10.20;99.90;;;;;;5002050;28;20192;-64
2021/12/02 03:40:19;;;;;;;7.97;2.10;;;10.10;99.90;;;;;;5001589;28;20189;-64
2021/12/02 03:42:50;;;;;;;10.23;2.60;;;10.20;99.90;;;;;;4999092;28;20208;-64
2021/12/02 03:45:17;;;;;;;5.20;1.97;;;10.20;99.90;;;;;;4999576;28;20189;-64
2021/12/02 03:47:44;;;;;;;6.97;2.33;;;10.10;99.90;;;;;;5038875;28;20296;-63
2021/12/02 03:50:11;;;;;;;11.33;2.27;;;10.10;99.90;;;;;;5030592;28;20199;-64
2021/12/02 03:52:37;;;;;;;9.20;2.30;;;10.00;99.90;;;;;;4998217;28;20236;-64
2021/12/02 03:55:04;;;;;;;7.53;1.90;;;10.00;99.90;;;;;;5002943;28;20197;-64
2021/12/02 03:57:32;;;;;;;5.27;2.00;;;9.90;99.90;;;;;;5005758;28;20299;-64
2021/12/02 04:00:00;;;;;;;12.60;2.30;;;9.90;99.90;;;;;;5021907;28;20204;-64
2021/12/02 04:02:27;;;;;;;12.63;2.47;;;9.90;99.90;;;;;;5000709;28;20205;-64
2021/12/02 04:04:53;;;;;;;10.00;2.10;;;9.90;99.90;;;;;;5011750;28;20220;-64
2021/12/02 04:07:23;;;;;;;10.33;2.40;;;9.90;99.90;;;;;;5006620;28;20602;-64
2021/12/02 04:09:50;;;;;;;5.80;2.67;;;10.00;99.90;;;;;;5007033;28;20220;-64
2021/12/02 04:12:23;;;;;;;6.73;2.33;;;10.00;99.90;;;;;;5004626;28;20181;-63
2021/12/02 04:15:02;;;;;;;6.80;2.47;;;10.00;99.90;;;;;;5005417;28;20200;-62
2021/12/02 04:17:40;;;;;;;7.00;2.10;;;10.00;99.90;;;;;;5020020;28;20192;-62
2021/12/02 04:20:14;;;;;;;6.20;2.07;;;10.00;99.90;;;;;;5005964;28;20181;-62
2021/12/02 04:22:41;;;;;;;8.03;2.53;;;10.00;99.90;;;;;;5021031;28;20732;-62
2021/12/02 04:25:09;;;;;;;5.97;2.00;;;10.00;99.90;;;;;;5006562;28;20196;-63
2021/12/02 04:27:36;;;;;;;4.13;1.77;;;10.00;99.90;;;;;;5005135;28;20240;-63
2021/12/02 04:30:08;;;;;;;13.57;2.30;;;10.00;99.90;;;;;;5036058;28;20898;-62
2021/12/02 04:32:35;;;;;;;5.37;1.80;;;10.00;99.90;;;;;;5005060;28;20274;-63
2021/12/02 04:35:02;;;;;;;5.87;2.40;;;10.00;99.90;;;;;;5001890;28;20932;-63
2021/12/02 04:37:29;;;;;;;5.20;1.97;;;10.00;99.90;;;;;;5007053;28;20199;-63
2021/12/02 04:39:56;;;;;;;8.93;2.07;;;10.00;99.90;;;;;;5006926;28;20200;-64
2021/12/02 04:42:23;;;;;;;8.93;2.47;;;10.00;99.90;;;;;;5004951;28;20196;-65
2021/12/02 04:44:50;;;;;;;10.53;2.00;;;10.00;99.90;;;;;;5006166;28;20262;-65
2021/12/02 04:47:17;;;;;;;10.53;1.90;;;10.00;99.90;;;;;;5004654;28;20193;-65
2021/12/02 04:49:44;;;;;;;8.63;2.13;;;9.90;99.90;;;;;;5005734;28;20736;-65
2021/12/02 04:52:11;;;;;;;5.70;2.10;;;9.80;99.90;;;;;;5002360;28;20280;-65
2021/12/02 04:54:37;;;;;;;7.50;2.00;;;9.80;99.90;;;;;;5006388;28;20270;-65
2021/12/02 04:57:04;;;;;;;7.73;2.30;;;9.70;99.90;;;;;;5019423;28;20756;-65
2021/12/02 04:59:30;;;;;;;5.00;1.90;;;9.70;99.90;;;;;;4989080;28;20201;-64
2021/12/02 05:01:56;;;;;;;9.17;2.20;;;9.70;99.90;;;;;;5004672;28;20208;-65
2021/12/02 05:04:22;;;;;;;9.77;2.60;;;9.70;99.90;;;;;;5000623;28;20204;-64
2021/12/02 05:06:49;;;;;;;9.90;2.70;;;9.70;99.90;;;;;;4997451;28;20251;-64
2021/12/02 05:09:15;;;;;;;7.47;2.07;;;9.80;99.90;;;;;;5004863;28;20690;-64
2021/12/02 05:11:41;;;;;;;6.23;1.63;;;9.70;99.90;;;;;;5004348;28;20485;-64
2021/12/02 05:14:08;;;;;;;4.50;2.10;;;9.80;99.90;;;;;;4998777;28;20275;-64
2021/12/02 05:16:36;;;;;;;10.00;2.27;;;9.80;99.90;;;;;;5004816;28;21186;-64
2021/12/02 05:19:03;;;;;;;9.83;2.37;;;9.90;99.90;;;;;;5019455;28;20391;-64
2021/12/02 05:21:29;;;;;;;6.23;1.80;;;9.90;99.90;;;;;;5015759;28;20195;-64
2021/12/02 05:23:55;;;;;;;4.80;2.00;;;9.90;99.90;;;;;;5003784;28;20216;-64
2021/12/02 05:26:23;;;;;;;7.30;1.87;;;10.00;99.90;;;;;;5005517;28;20209;-64
2021/12/02 05:28:52;;;;;;;5.57;2.03;;;10.00;99.90;;;;;;5005944;28;20282;-65
2021/12/02 05:31:19;;;;;;;5.97;2.27;;;9.90;99.90;;;;;;5027898;28;20208;-64
2021/12/02 05:33:46;;;;;;;6.47;1.97;;;9.90;99.90;;;;;;5006819;28;20204;-64
2021/12/02 05:36:13;;;;;;;9.03;2.10;;;9.90;99.90;;;;;;5006674;28;20231;-64
2021/12/02 05:38:40;;;;;;;8.50;2.00;;;9.90;99.90;;;;;;5004846;28;20193;-64
2021/12/02 05:41:08;;;;;;;9.80;1.97;;;9.90;99.90;;;;;;5002372;28;20948;-63
2021/12/02 05:43:34;;;;;;;4.23;2.00;;;9.90;99.90;;;;;;4987319;28;20670;-63
2021/12/02 05:46:02;;;;;;;12.87;2.17;;;9.90;99.90;;;;;;5005934;28;20221;-63
2021/12/02 05:48:28;;;;;;;6.77;2.10;;;10.00;99.90;;;;;;5001811;28;20284;-64
2021/12/02 05:50:54;;;;;;;7.83;2.13;;;10.00;99.90;;;;;;5003879;28;20276;-63
2021/12/02 05:53:21;;;;;;;3.97;1.87;;;10.10;99.90;;;;;;5000896;28;20219;-63
2021/12/02 05:55:47;;;;;;;4.23;1.77;;;10.10;99.90;;;;;;5000406;28;20185;-64
2021/12/02 05:58:16;;;;;;;7.30;2.33;;;10.20;99.90;;;;;;5003124;28;20193;-63
2021/12/02 06:00:43;;;;;;;6.63;1.83;;;10.30;99.90;;;;;;5031783;28;20192;-63
2021/12/02 06:03:09;;;;;;;5.83;1.93;;;10.30;99.90;;;;;;5003838;28;20216;-63
2021/12/02 06:05:36;;;;;;;6.80;2.00;;;10.30;99.90;;;;;;5010682;28;20209;-62
2021/12/02 06:08:04;;;;;;;6.20;2.03;;;10.30;99.90;;;;;;5016166;28;20215;-63
2021/12/02 06:10:31;;;;;;;9.47;1.87;;;10.40;99.90;;;;;;5001233;28;20638;-63
2021/12/02 06:12:58;;;;;;;5.00;1.80;;;10.40;99.90;;;;;;4996184;28;20212;-63
2021/12/02 06:15:24;;;;;;;5.50;1.63;;;10.50;99.90;;;;;;4993846;28;20185;-63
2021/12/02 06:17:51;;;;;;;7.93;2.00;;;10.50;99.90;;;;;;4997431;28;20654;-64
2021/12/02 06:20:18;;;;;;;5.73;1.80;;;10.60;99.90;;;;;;4993361;28;20190;-63
2021/12/02 06:22:46;;;;;;;6.80;1.73;;;10.70;99.90;;;;;;4995857;28;20193;-64
2021/12/02 06:27:50;;;;;;;6.67;2.60;;;10.90;99.90;;;;;;4997582;28;20223;-64
2021/12/02 06:30:23;;;;;;;10.00;1.63;;;10.90;99.90;;;;;;4995528;28;20200;-67
2021/12/02 06:32:52;;;;;;;9.23;1.90;;;11.00;99.90;;;;;;5014310;28;20305;-63
2021/12/02 06:35:20;;;;;;;3.13;1.70;;;11.00;99.90;;;;;;4999862;28;20220;-64
2021/12/02 06:37:46;;;;;;;6.97;1.80;;;11.10;99.90;;;;;;5010650;28;20188;-63
2021/12/02 06:40:14;;;;;;;7.90;2.40;;;11.20;99.90;;;;;;5000019;28;20276;-63
2021/12/02 06:42:41;;;;;;;4.90;1.87;;;11.20;99.90;;;;;;5004124;28;20199;-63
2021/12/02 06:45:12;;;;;;;2.57;1.40;;;11.30;99.90;;;;;;4986407;28;20649;-63
2021/12/02 06:47:40;;;;;;;5.70;1.90;;;11.30;99.90;;;;;;4999707;28;20284;-63
2021/12/02 06:50:19;;;;;;;5.83;1.83;;;11.40;99.90;;;;;;5000352;28;20201;-63
2021/12/02 06:52:49;;;;;;;12.83;1.90;;;11.50;99.90;;;;;;4998584;28;20247;-63
2021/12/02 06:55:17;;;;;;;5.13;1.77;;;11.50;99.90;;;;;;5000315;28;20188;-64
2021/12/02 06:57:45;;;;;;;12.73;2.10;;;11.60;99.90;;;;;;5002787;28;20646;-64
2021/12/02 07:00:16;;;;;;;4.10;1.70;;;11.80;99.90;;;;;;5001703;28;20215;-65
2021/12/02 07:02:43;;;;;;;6.20;2.07;;;12.00;99.90;;;;;;5016231;28;20197;-64
2021/12/02 07:05:13;;;;;;;3.70;1.87;;;11.90;99.90;;;;;;4998986;28;20262;-63
2021/12/02 07:07:40;;;;;;;4.87;1.83;;;11.80;99.90;;;;;;5006770;28;20251;-63
2021/12/02 07:10:13;;;;;;;4.63;1.50;;;11.80;99.90;;;;;;5003022;28;20274;-63
2021/12/02 07:12:42;;;;;;;3.00;1.27;;;11.90;99.90;;;;;;5001687;28;20220;-65
2021/12/02 07:15:17;;;;;;;3.57;1.60;;;11.90;99.90;;;;;;4998966;28;20195;-63
2021/12/02 07:17:46;;;;;;;2.33;1.37;;;11.90;99.90;;;;;;5007012;28;20860;-62
2021/12/02 07:20:13;;;;;;;6.83;1.57;;;12.00;99.90;;;;;;5007160;28;20235;-65
2021/12/02 07:22:40;;;;;;;4.00;1.50;;;12.20;99.90;;;;;;5006987;28;20219;-65
2021/12/02 07:25:07;;;;;;;6.77;1.40;;;12.30;99.90;;;;;;5007208;28;20272;-64
2021/12/02 07:27:34;;;;;;;5.30;1.60;;;12.40;99.90;;;;;;5007435;28;20723;-64
2021/12/02 07:30:03;;;;;;;3.20;1.20;;;12.40;99.90;;;;;;5005931;28;20743;-64
2021/12/02 07:32:37;;;;;;;3.23;1.20;;;12.40;99.90;;;;;;5006544;28;20200;-64
2021/12/02 07:35:10;;;;;;;3.93;1.30;;;12.40;99.90;;;;;;5004831;28;20197;-65
2021/12/02 07:37:36;;;;;;;5.10;1.50;;;12.40;99.90;;;;;;5015169;28;20209;-64
2021/12/02 07:40:03;;;;;;;3.10;1.40;;;12.40;99.90;;;;;;5017992;28;20676;-64
2021/12/02 07:42:30;;;;;;;7.03;1.50;;;12.50;99.90;;;;;;5038816;28;20220;-64
2021/12/02 07:44:56;;;;;;;5.00;1.30;;;12.50;99.90;;;;;;5013348;28;20259;-64
2021/12/02 07:47:23;;;;;;;7.73;1.30;;;12.50;99.90;;;;;;5016586;28;20193;-63
2021/12/02 07:49:50;;;;;;;3.87;1.60;;;12.60;99.90;;;;;;5005365;28;20275;-62
2021/12/02 07:52:21;;;;;;;4.20;1.30;;;12.60;99.90;;;;;;5004351;28;20188;-63
2021/12/02 07:54:52;;;;;;;7.53;1.57;;;12.60;99.90;;;;;;5006423;28;20648;-63
2021/12/02 07:57:19;;;;;;;4.70;1.20;;;12.60;99.90;;;;;;5007272;28;20239;-63
2021/12/02 07:59:50;;;;;;;5.07;1.13;;;12.70;99.90;;;;;;5006292;28;20218;-63
2021/12/02 08:02:17;;;;;;;5.07;1.47;;;12.70;99.90;;;;;;5004529;28;20184;-64
2021/12/02 08:04:44;;;;;;;2.67;1.33;;;12.80;99.90;;;;;;5006232;28;20204;-63
2021/12/02 08:07:11;;;;;;;3.43;1.20;;;12.80;99.90;;;;;;5007206;28;20208;-67
2021/12/02 08:09:37;;;;;;;3.77;1.27;;;12.80;99.90;;;;;;5004370;28;20300;-66
2021/12/02 08:12:04;;;;;;;8.70;1.60;;;12.90;99.90;;;;;;5011927;28;20262;-67
2021/12/02 08:14:31;;;;;;;3.80;1.10;;;13.00;99.90;;;;;;5005545;28;20338;-67
2021/12/02 08:16:57;;;;;;;3.27;1.20;;;13.10;99.90;;;;;;5005050;28;20192;-67
2021/12/02 08:19:23;;;;;;;3.10;1.20;;;13.10;99.90;;;;;;5006485;28;20840;-66
2021/12/02 08:21:51;;;;;;;3.87;1.40;;;13.10;99.90;;;;;;5002922;28;20462;-67
2021/12/02 08:24:21;;;;;;;3.63;1.37;;;13.20;99.90;;;;;;5003211;28;20259;-67
2021/12/02 08:26:49;;;;;;;4.77;1.50;;;13.20;99.90;;;;;;5002103;28;20213;-67
2021/12/02 08:29:16;;;;;;;4.10;1.20;;;13.30;99.90;;;;;;5001821;28;20197;-67
2021/12/02 08:31:42;;;;;;;5.20;1.20;;;13.30;99.90;;;;;;5020228;28;20197;-67
2021/12/02 08:34:08;;;;;;;4.60;1.43;;;13.30;99.90;;;;;;5002294;28;20224;-67
2021/12/02 08:36:45;;;;;;;5.93;1.40;;;13.40;99.90;;;;;;5005640;28;20291;-66
2021/12/02 08:39:17;;;;;;;5.03;1.50;;;13.40;99.90;;;;;;4997116;28;20196;-66
2021/12/02 08:41:48;;;;;;;5.33;1.37;;;13.50;99.90;;;;;;5005837;28;20193;-67
2021/12/02 08:44:16;;;;;;;5.20;1.40;;;13.60;99.90;;;;;;5005056;28;20192;-66
2021/12/02 08:46:43;;;;;;;5.17;1.50;;;13.70;99.90;;;;;;5006779;28;20197;-67
2021/12/02 08:49:10;;;;;;;3.87;1.37;;;13.80;99.90;;;;;;5005998;28;20322;-67
2021/12/02 08:51:37;;;;;;;7.13;1.37;;;13.70;99.90;;;;;;5037990;28;20279;-66
2021/12/02 08:54:03;;;;;;;3.17;1.40;;;13.80;99.90;;;;;;5037363;28;20307;-67
2021/12/02 08:56:30;;;;;;;2.37;1.17;;;13.80;99.90;;;;;;5008226;28;20741;-66
2021/12/02 08:58:58;;;;;;;5.70;1.17;;;13.80;99.90;;;;;;5001427;28;20192;-67
2021/12/02 09:01:25;;;;;;;7.80;1.40;;;13.90;99.90;;;;;;5001852;28;20211;-66
2021/12/02 09:03:51;;;;;;;5.30;1.50;;;14.00;99.90;;;;;;5005662;28;20642;-66
2021/12/02 09:06:21;;;;;;;6.80;1.60;;;14.00;99.90;;;;;;5005006;28;20315;-66
2021/12/02 09:08:49;;;;;;;3.97;1.20;;;14.10;99.90;;;;;;5004148;28;20205;-67
2021/12/02 09:11:16;;;;;;;4.20;1.47;;;14.10;99.90;;;;;;5004961;28;20633;-66
2021/12/02 09:13:42;;;;;;;5.03;1.40;;;14.10;99.90;;;;;;5004321;28;20231;-67
2021/12/02 09:16:09;;;;;;;3.70;1.20;;;14.30;99.90;;;;;;5005285;28;20181;-66
2021/12/02 09:18:35;;;;;;;4.20;1.00;;;14.30;99.90;;;;;;5002995;28;20197;-67
2021/12/02 09:21:02;;;;;;;3.77;1.30;;;14.40;99.90;;;;;;5005678;28;20291;-68
2021/12/02 09:23:28;;;;;;;2.17;1.30;;;14.40;99.90;;;;;;5002938;28;20506;-68
2021/12/02 09:25:54;;;;;;;3.63;1.50;;;14.60;99.90;;;;;;5006197;28;20842;-68
2021/12/02 09:28:21;;;;;;;4.00;1.40;;;14.60;99.90;;;;;;5002824;28;21069;-68
2021/12/02 09:30:47;;;;;;;4.03;1.20;;;14.60;99.90;;;;;;5004230;28;20673;-68
2021/12/02 09:33:14;;;;;;;5.40;1.23;;;14.60;99.90;;;;;;5005816;28;20216;-68
2021/12/02 09:35:41;;;;;;;3.87;1.20;;;14.60;99.90;;;;;;5005429;28;20593;-67
2021/12/02 09:38:08;;;;;;;4.10;1.27;;;14.70;99.90;;;;;;5004349;28;20407;-67
2021/12/02 09:40:36;;;;;;;6.43;1.30;;;14.70;99.90;;;;;;5018498;28;22174;-67
2021/12/02 09:43:05;;;;;;;2.63;1.37;;;14.70;99.90;;;;;;5010288;28;20201;-67
2021/12/02 09:45:32;;;;;;;1.93;1.00;;;14.80;99.90;;;;;;4997348;28;20382;-67
2021/12/02 09:47:58;;;;;;;4.30;1.63;;;14.80;99.90;;;;;;4986189;28;20218;-67
2021/12/02 09:50:33;;;;;;;2.53;1.27;;;14.90;99.90;;;;;;5002662;28;20543;-66
2021/12/02 09:53:12;;;;;;;3.33;1.10;;;14.90;99.90;;;;;;5002383;28;20239;-67
2021/12/02 09:58:09;;;;;;;3.20;1.27;;;14.90;99.90;;;;;;4998168;28;20189;-66
2021/12/02 10:00:47;;;;;;;4.30;1.17;;;15.00;99.90;;;;;;4986567;28;20223;-66
2021/12/02 10:03:21;;;;;;;5.33;1.20;;;15.20;99.90;;;;;;4985772;28;20211;-67
2021/12/02 10:06:07;;;;;;;2.47;1.23;;;15.30;99.90;;;;;;4987182;28;20307;-67
2021/12/02 10:08:53;;;;;;;1.77;1.10;;;15.30;99.90;;;;;;5006016;28;20200;-67
2021/12/02 10:11:46;;;;;;;4.77;1.30;;;15.40;99.90;;;;;;4982999;28;20208;-67
2021/12/02 10:14:31;;;;;;;3.63;1.17;;;15.50;99.90;;;;;;5001458;28;20807;-67
2021/12/02 10:17:21;;;;;;;4.57;1.30;;;15.60;99.90;;;;;;4996058;28;20546;-66
2021/12/02 10:23:19;;;;;;;2.73;1.30;;;16.20;99.90;;;;;;5001187;28;20216;-67
2021/12/02 10:25:59;;;;;;;4.87;1.40;;;17.40;99.90;;;;;;5034878;28;20224;-67
2021/12/02 10:28:29;;;;;;;2.57;1.10;;;17.90;99.90;;;;;;5018058;28;20717;-67
2021/12/02 10:31:05;;;;;;;2.40;1.20;;;19.80;99.90;;;;;;5018294;28;20216;-66
2021/12/02 10:33:44;;;;;;;4.13;1.47;;;21.60;99.90;;;;;;5004473;28;20270;-67
2021/12/02 10:36:58;;;;;;;1.90;1.20;;;22.40;99.90;;;;;;5003866;28;20199;-68
2021/12/02 10:39:25;;;;;;;3.03;1.20;;;22.10;99.90;;;;;;5001519;28;20646;-67
2021/12/02 10:42:08;;;;;;;5.60;1.20;;;20.20;99.90;;;;;;5004885;28;20636;-68
2021/12/02 10:44:39;;;;;;;4.50;1.50;;;19.50;99.90;;;;;;5000848;28;20193;-68
2021/12/02 10:47:13;;;;;;;1.93;1.10;;;19.10;99.90;;;;;;5003321;28;20660;-67
2021/12/02 10:49:45;;;;;;;7.03;1.30;;;19.20;99.90;;;;;;5003988;28;20978;-68
2021/12/02 10:52:18;;;;;;;3.30;1.10;;;19.20;99.90;;;;;;5004220;28;20475;-68
2021/12/02 10:55:08;;;;;;;3.80;1.27;;;19.30;99.90;;;;;;5006918;28;20299;-68
2021/12/02 10:57:54;;;;;;;4.20;1.17;;;19.30;99.90;;;;;;5005446;28;20232;-68
2021/12/02 11:00:34;;;;;;;7.83;1.23;;;18.80;99.90;;;;;;5002258;28;20283;-67
2021/12/02 11:03:10;;;;;;;3.17;1.23;;;18.20;99.90;;;;;;5004681;28;20304;-67
2021/12/02 11:05:44;;;;;;;3.03;1.03;;;18.10;99.90;;;;;;5003110;28;20196;-67
2021/12/02 11:08:13;;;;;;;4.73;1.10;;;17.90;99.90;;;;;;5000991;28;20660;-67
2021/12/02 11:10:50;;;;;;;2.67;1.10;;;17.80;99.90;;;;;;5016936;28;20246;-67
2021/12/02 11:13:28;;;;;;;4.77;1.20;;;17.60;99.90;;;;;;4999549;28;20348;-67
2021/12/02 11:15:55;;;;;;;2.33;0.90;;;17.50;99.90;;;;;;5001285;28;20188;-67
2021/12/02 11:18:23;;;;;;;3.20;1.00;;;17.50;99.90;;;;;;5004959;28;20197;-67
2021/12/02 11:20:58;;;;;;;1.83;1.00;;;17.40;99.90;;;;;;5003599;28;20273;-66
2021/12/02 11:23:37;;;;;;;6.40;1.17;;;17.40;99.90;;;;;;5003580;28;20207;-66
2021/12/02 11:26:10;;;;;;;3.93;1.07;;;17.40;99.90;;;;;;5005323;28;20196;-67
2021/12/02 11:28:41;;;;;;;1.87;1.00;;;17.30;99.90;;;;;;5004322;28;20378;-66
2021/12/02 11:31:18;;;;;;;2.10;1.10;;;17.30;99.90;;;;;;5002085;28;20200;-66
2021/12/02 11:33:47;;;;;;;2.23;0.90;;;17.30;99.90;;;;;;5002244;28;20216;-66
2021/12/02 11:36:28;;;;;;;1.97;1.10;;;17.30;99.90;;;;;;5003699;28;20200;-67
2021/12/02 11:38:59;;;;;;;1.83;0.90;;;17.20;99.90;;;;;;5005779;28;20192;-67
2021/12/02 11:41:28;;;;;;;5.37;1.20;;;17.20;99.90;;;;;;5005692;28;20193;-67
2021/12/02 11:43:55;;;;;;;1.83;0.93;;;17.20;99.90;;;;;;5006532;28;20200;-68
2021/12/02 11:46:22;;;;;;;2.00;0.90;;;17.10;99.90;;;;;;5007281;28;20193;-68
2021/12/02 11:48:52;;;;;;;1.67;1.00;;;17.10;99.90;;;;;;5007643;28;20709;-67
2021/12/02 11:51:22;;;;;;;2.23;0.80;;;17.10;99.90;;;;;;5036880;28;20243;-67
2021/12/02 11:53:49;;;;;;;4.30;1.17;;;17.10;99.90;;;;;;5005144;28;20244;-68
2021/12/02 11:56:22;;;;;;;2.37;1.00;;;17.00;99.90;;;;;;5007853;28;20200;-66
2021/12/02 11:58:51;;;;;;;6.63;1.00;;;16.90;99.90;;;;;;5007425;28;20200;-67
2021/12/02 12:01:24;;;;;;;2.40;1.10;;;16.90;99.90;;;;;;5018689;28;21102;-66
2021/12/02 12:04:10;;;;;;;4.73;1.30;;;16.80;99.90;;;;;;5005792;28;20193;-66
2021/12/02 12:06:41;;;;;;;3.43;1.03;;;16.80;99.90;;;;;;5023625;28;20235;-66
2021/12/02 12:09:17;;;;;;;6.00;1.50;;;16.80;99.90;;;;;;5004247;28;20204;-66
2021/12/02 12:11:55;;;;;;;4.97;1.07;;;16.80;99.90;;;;;;5007395;28;20326;-66
2021/12/02 12:14:41;;;;;;;5.00;1.40;;;16.80;99.90;;;;;;5006845;28;20200;-66
2021/12/02 12:17:16;;;;;;;4.83;1.23;;;16.70;99.90;;;;;;5006881;28;20189;-66
2021/12/02 12:19:45;;;;;;;4.30;0.87;;;16.70;99.90;;;;;;5007493;28;20254;-66
2021/12/02 12:22:31;;;;;;;2.80;0.90;;;16.70;99.90;;;;;;5042460;28;20185;-66
2021/12/02 12:25:03;;;;;;;2.93;0.90;;;16.60;99.90;;;;;;5037775;28;20250;-67
2021/12/02 12:27:36;;;;;;;2.97;1.10;;;16.60;99.90;;;;;;5005601;28;20236;-66
2021/12/02 12:30:07;;;;;;;2.60;1.20;;;16.50;99.90;;;;;;5000119;28;20200;-67
2021/12/02 12:32:50;;;;;;;0.87;0.77;;;16.50;99.90;;;;;;5010984;28;20282;-67
2021/12/02 12:37:54;;;;;;;7.10;1.23;;;16.50;99.90;;;;;;5006961;28;20840;-67
2021/12/02 12:40:40;;;;;;;3.77;1.03;;;16.40;99.90;;;;;;5007502;28;20227;-67
2021/12/02 12:43:10;;;;;;;5.87;1.30;;;16.40;99.90;;;;;;5005624;28;20200;-67
2021/12/02 12:45:42;;;;;;;1.07;0.83;;;16.30;99.90;;;;;;5005084;28;20204;-67
2021/12/02 12:48:29;;;;;;;8.87;1.30;;;16.30;99.90;;;;;;5003409;28;20201;-67
2021/12/02 12:51:23;;;;;;;5.73;1.27;;;16.20;99.90;;;;;;5037015;28;20199;-67
2021/12/02 12:53:53;;;;;;;2.10;0.87;;;16.20;99.90;;;;;;4998911;28;20225;-67
2021/12/02 12:56:38;;;;;;;13.70;1.40;;;16.20;99.90;;;;;;5010677;28;20197;-67
2021/12/02 12:59:12;;;;;;;3.27;0.73;;;16.20;99.90;;;;;;5004032;28;20189;-66
2021/12/02 13:01:53;;;;;;;3.57;1.00;;;16.10;99.90;;;;;;4988467;28;20222;-67
2021/12/02 13:04:24;;;;;;;3.03;1.13;;;16.10;99.90;;;;;;5005971;28;20262;-67
2021/12/02 13:07:15;;;;;;;2.00;1.00;;;16.10;99.90;;;;;;5005669;28;20227;-66
2021/12/02 13:12:20;;;;;;;2.47;0.70;;;16.00;99.90;;;;;;5001421;28;20289;-67
2021/12/02 13:14:51;;;;;;;2.83;1.03;;;15.90;99.90;;;;;;5034283;28;20212;-67
2021/12/02 13:17:49;;;;;;;2.83;1.10;;;15.90;99.90;;;;;;5001710;28;20414;-67
2021/12/02 13:20:31;;;;;;;2.50;1.17;;;15.80;99.90;;;;;;5005453;28;20514;-66
2021/12/02 13:23:13;;;;;;;5.77;1.20;;;15.80;99.90;;;;;;5003987;28;20196;-66
2021/12/02 13:25:50;;;;;;;3.93;1.10;;;15.70;99.90;;;;;;5019216;28;20295;-66
2021/12/02 13:28:22;;;;;;;2.33;1.00;;;15.70;99.90;;;;;;4996472;28;20262;-66